createdAt,value
2018-02-10T00:01:23.881Z,2.42
2018-02-10T00:03:51.549Z,2.28
2018-02-10T00:06:19.110Z,2.22
2018-02-10T00:08:46.908Z,2.20
2018-02-10T00:11:14.493Z,2.22
2018-02-10T00:13:42.212Z,2.23
2018-02-10T00:16:09.773Z,2.23
2018-02-10T00:18:37.526Z,2.14
2018-02-10T00:21:05.075Z,2.12
2018-02-10T00:23:32.629Z,2.16
2018-02-10T00:26:00.425Z,2.15
2018-02-10T00:28:27.973Z,2.13
2018-02-10T00:30:55.545Z,2.15
2018-02-10T00:33:23.093Z,2.17
2018-02-10T00:35:50.697Z,2.19
2018-02-10T00:38:18.593Z,2.24
2018-02-10T00:40:46.186Z,2.25
2018-02-10T00:43:13.754Z,2.25
2018-02-10T00:45:41.479Z,2.26
2018-02-10T00:48:09.290Z,2.20
2018-02-10T00:50:37.115Z,2.15
2018-02-10T00:53:04.729Z,2.15
2018-02-10T00:55:32.336Z,2.17
2018-02-10T00:58:00.031Z,2.18
2018-02-10T01:00:27.598Z,2.10
2018-02-10T01:02:55.405Z,2.05
2018-02-10T01:05:23.139Z,1.99
2018-02-10T01:07:50.697Z,2.03
2018-02-10T01:10:18.561Z,1.98
2018-02-10T01:12:46.277Z,1.97
2018-02-10T01:15:13.834Z,1.94
2018-02-10T01:17:41.405Z,1.86
2018-02-10T01:20:08.957Z,1.75
2018-02-10T01:22:36.521Z,1.78
2018-02-10T01:25:04.096Z,1.72
2018-02-10T01:27:31.686Z,1.81
2018-02-10T01:29:59.233Z,1.79
2018-02-10T01:32:26.784Z,1.85
2018-02-10T01:34:54.349Z,1.91
2018-02-10T01:37:21.902Z,1.94
2018-02-10T01:39:49.654Z,1.96
2018-02-10T01:42:17.222Z,1.98
2018-02-10T01:44:44.825Z,1.91
2018-02-10T01:47:12.397Z,1.88
2018-02-10T01:49:39.934Z,1.82
2018-02-10T01:52:07.498Z,1.63
2018-02-10T01:54:35.280Z,1.48
2018-02-10T01:57:02.842Z,1.39
2018-02-10T01:59:30.394Z,1.34
2018-02-10T02:01:58.274Z,1.39
2018-02-10T02:04:26.015Z,1.37
2018-02-10T02:06:53.565Z,1.40
2018-02-10T02:09:21.157Z,1.41
2018-02-10T02:11:48.712Z,1.41
2018-02-10T02:14:16.521Z,1.43
2018-02-10T02:16:44.242Z,1.44
2018-02-10T02:19:11.865Z,1.48
2018-02-10T02:21:39.677Z,1.48
2018-02-10T02:24:07.235Z,1.46
2018-02-10T02:26:34.809Z,1.50
2018-02-10T02:29:02.366Z,1.61
2018-02-10T02:31:30.032Z,1.67
2018-02-10T02:33:57.598Z,1.70
2018-02-10T02:36:25.334Z,1.66
2018-02-10T02:38:52.887Z,1.65
2018-02-10T02:41:20.444Z,1.63
2018-02-10T02:43:48.238Z,1.52
2018-02-10T02:46:15.798Z,1.47
2018-02-10T02:48:43.366Z,1.43
2018-02-10T02:53:44.883Z,1.42
2018-02-10T02:56:12.434Z,1.37
2018-02-10T02:58:39.986Z,1.39
2018-02-10T03:01:07.784Z,1.41
2018-02-10T03:03:35.334Z,1.41
2018-02-10T03:06:03.119Z,1.43
2018-02-10T03:08:30.677Z,1.41
2018-02-10T03:10:58.493Z,1.41
2018-02-10T03:13:26.153Z,1.35
2018-02-10T03:15:53.882Z,1.41
2018-02-10T03:18:21.574Z,1.45
2018-02-10T03:20:49.143Z,1.46
2018-02-10T03:23:16.948Z,1.45
2018-02-10T03:25:44.505Z,1.47
2018-02-10T03:28:12.283Z,1.47
2018-02-10T03:30:39.979Z,1.47
2018-02-10T03:33:07.695Z,1.47
2018-02-10T03:35:36.117Z,1.52
2018-02-10T03:38:03.859Z,1.58
2018-02-10T03:40:31.557Z,1.54
2018-02-10T03:42:59.395Z,1.59
2018-02-10T03:45:27.101Z,1.64
2018-02-10T03:47:54.653Z,1.58
2018-02-10T03:50:22.201Z,1.56
2018-02-10T03:52:49.926Z,1.53
2018-02-10T03:55:17.478Z,1.56
2018-02-10T03:57:45.046Z,1.59
2018-02-10T04:00:12.597Z,1.58
2018-02-10T04:02:40.340Z,1.68
2018-02-10T04:05:08.055Z,1.74
2018-02-10T04:07:35.689Z,1.79
2018-02-10T04:10:03.281Z,1.80
2018-02-10T04:12:30.838Z,1.80
2018-02-10T04:14:58.406Z,1.79
2018-02-10T04:17:25.973Z,1.74
2018-02-10T04:19:53.800Z,1.69
2018-02-10T04:22:21.355Z,1.58
2018-02-10T04:24:49.138Z,1.56
2018-02-10T04:27:16.723Z,1.50
2018-02-10T04:29:44.278Z,1.44
2018-02-10T04:32:11.841Z,1.39
2018-02-10T04:34:39.397Z,1.47
2018-02-10T04:37:07.001Z,1.51
2018-02-10T04:39:34.563Z,1.51
2018-02-10T04:42:02.122Z,1.56
2018-02-10T04:44:29.707Z,1.59
2018-02-10T04:46:57.394Z,1.58
2018-02-10T04:49:24.957Z,1.58
2018-02-10T04:51:52.513Z,1.58
2018-02-10T04:54:20.328Z,1.49
2018-02-10T04:56:48.067Z,1.44
2018-02-10T04:59:15.760Z,1.46
2018-02-10T05:01:43.317Z,1.43
2018-02-10T05:04:10.902Z,1.43
2018-02-10T05:06:38.465Z,1.50
2018-02-10T05:09:06.025Z,1.57
2018-02-10T05:11:33.629Z,1.52
2018-02-10T05:14:01.392Z,1.54
2018-02-10T05:16:28.954Z,1.47
2018-02-10T05:18:56.521Z,1.40
2018-02-10T05:21:24.253Z,1.42
2018-02-10T05:23:51.809Z,1.40
2018-02-10T05:26:19.581Z,1.39
2018-02-10T05:28:47.193Z,1.37
2018-02-10T05:31:14.778Z,1.38
2018-02-10T05:33:42.340Z,1.42
2018-02-10T05:36:09.905Z,1.46
2018-02-10T05:38:37.470Z,1.40
2018-02-10T05:41:05.307Z,1.39
2018-02-10T05:43:32.909Z,1.43
2018-02-10T05:46:00.725Z,1.46
2018-02-10T05:48:28.442Z,1.47
2018-02-10T05:50:55.989Z,1.47
2018-02-10T05:53:23.545Z,1.50
2018-02-10T05:55:51.298Z,1.53
2018-02-10T05:58:18.913Z,1.58
2018-02-10T06:00:46.633Z,1.66
2018-02-10T06:03:14.222Z,1.67
2018-02-10T06:05:41.969Z,1.72
2018-02-10T06:08:09.689Z,1.80
2018-02-10T06:10:37.249Z,1.87
2018-02-10T06:13:04.813Z,2.00
2018-02-10T06:15:32.379Z,2.13
2018-02-10T06:17:59.970Z,2.18
2018-02-10T06:20:27.883Z,2.14
2018-02-10T06:22:55.455Z,2.12
2018-02-10T06:25:23.213Z,2.09
2018-02-10T06:27:51.040Z,2.13
2018-02-10T06:30:18.609Z,2.22
2018-02-10T06:32:46.214Z,2.30
2018-02-10T06:35:13.986Z,2.39
2018-02-10T06:37:41.597Z,2.39
2018-02-10T06:40:09.148Z,2.38
2018-02-10T06:42:36.709Z,2.44
2018-02-10T06:45:04.280Z,2.51
2018-02-10T06:47:32.075Z,2.64
2018-02-10T06:49:59.641Z,2.77
2018-02-10T06:52:27.192Z,3.14
2018-02-10T06:54:54.871Z,3.43
2018-02-10T06:57:22.436Z,3.53
2018-02-10T06:59:50.027Z,3.48
2018-02-10T07:02:17.883Z,3.52
2018-02-10T07:04:45.600Z,3.56
2018-02-10T07:07:13.165Z,3.58
2018-02-10T07:09:40.731Z,3.59
2018-02-10T07:12:08.555Z,3.60
2018-02-10T07:14:36.145Z,3.58
2018-02-10T07:17:03.752Z,3.64
2018-02-10T07:19:31.325Z,3.69
2018-02-10T07:21:59.866Z,3.71
2018-02-10T07:24:27.441Z,3.70
2018-02-10T07:26:55.165Z,3.71
2018-02-10T07:29:22.984Z,3.81
2018-02-10T07:31:50.797Z,3.93
2018-02-10T07:34:18.361Z,4.02
2018-02-10T07:36:45.923Z,4.12
2018-02-10T07:39:13.757Z,4.14
2018-02-10T07:41:41.350Z,4.21
2018-02-10T07:44:09.092Z,4.22
2018-02-10T07:46:36.703Z,4.24
2018-02-10T07:49:04.257Z,4.32
2018-02-10T07:51:31.814Z,4.45
2018-02-10T07:53:59.394Z,4.57
2018-02-10T07:56:26.993Z,4.58
2018-02-10T07:58:54.561Z,4.58
2018-02-10T08:01:22.149Z,4.66
2018-02-10T08:03:49.937Z,4.72
2018-02-10T08:06:17.501Z,4.82
2018-02-10T08:08:45.274Z,4.91
2018-02-10T08:11:12.874Z,4.98
2018-02-10T08:13:40.429Z,5.06
2018-02-10T08:16:08.517Z,5.24
2018-02-10T08:18:36.890Z,5.51
2018-02-10T08:21:04.618Z,5.80
2018-02-10T08:23:32.274Z,6.36
2018-02-10T08:25:59.986Z,7.03
2018-02-10T08:28:27.610Z,7.56
2018-02-10T08:30:55.228Z,7.80
2018-02-10T08:33:22.793Z,8.43
2018-02-10T08:35:50.461Z,8.94
2018-02-10T08:38:18.066Z,9.07
2018-02-10T08:40:45.908Z,9.12
2018-02-10T08:43:13.467Z,9.25
2018-02-10T08:45:41.038Z,9.65
2018-02-10T08:48:08.652Z,10.02
2018-02-10T08:50:36.271Z,10.15
2018-02-10T08:53:03.876Z,10.14
2018-02-10T08:55:31.769Z,10.50
2018-02-10T08:57:59.321Z,10.78
2018-02-10T09:00:26.885Z,11.12
2018-02-10T09:02:54.459Z,11.16
2018-02-10T09:05:22.030Z,11.13
2018-02-10T09:07:49.695Z,11.57
2018-02-10T09:10:17.317Z,12.24
2018-02-10T09:12:45.333Z,12.76
2018-02-10T09:15:12.901Z,13.30
2018-02-10T09:17:40.645Z,13.84
2018-02-10T09:20:08.303Z,14.10
2018-02-10T09:22:35.862Z,14.15
2018-02-10T09:25:03.612Z,13.86
2018-02-10T09:27:31.244Z,13.26
2018-02-10T09:29:58.897Z,12.45
2018-02-10T09:32:26.589Z,11.92
2018-02-10T09:34:54.152Z,11.45
2018-02-10T09:37:21.728Z,10.94
2018-02-10T09:39:49.318Z,10.94
2018-02-10T09:42:16.893Z,11.08
2018-02-10T09:44:44.453Z,11.32
2018-02-10T09:47:12.082Z,11.13
2018-02-10T09:49:39.623Z,11.23
2018-02-10T09:52:07.428Z,10.78
2018-02-10T09:54:35.248Z,10.07
2018-02-10T09:57:02.865Z,9.36
2018-02-10T09:59:30.465Z,8.89
2018-02-10T10:01:58.092Z,8.69
2018-02-10T10:04:25.919Z,8.78
2018-02-10T10:06:53.742Z,8.94
2018-02-10T10:09:21.297Z,9.48
2018-02-10T10:11:48.838Z,9.90
2018-02-10T10:14:16.591Z,10.35
2018-02-10T10:16:44.170Z,10.83
2018-02-10T10:19:11.895Z,11.24
2018-02-10T10:21:40.063Z,10.93
2018-02-10T10:24:07.627Z,10.85
2018-02-10T10:26:35.383Z,10.73
2018-02-10T10:29:03.051Z,10.65
2018-02-10T10:31:30.918Z,10.54
2018-02-10T10:33:58.738Z,10.51
2018-02-10T10:36:26.457Z,10.07
2018-02-10T10:38:54.179Z,9.87
2018-02-10T10:41:21.996Z,9.81
2018-02-10T10:43:49.738Z,9.64
2018-02-10T10:46:17.530Z,9.38
2018-02-10T10:48:45.250Z,9.19
2018-02-10T10:51:13.058Z,9.10
2018-02-10T10:53:40.676Z,9.01
2018-02-10T10:56:08.282Z,9.00
2018-02-10T10:58:36.121Z,8.89
2018-02-10T11:01:03.702Z,8.77
2018-02-10T11:03:31.274Z,8.49
2018-02-10T11:05:58.834Z,8.38
2018-02-10T11:08:26.401Z,8.39
2018-02-10T11:10:53.964Z,8.55
2018-02-10T11:13:21.828Z,8.44
2018-02-10T11:15:49.521Z,8.29
2018-02-10T11:18:17.121Z,8.21
2018-02-10T11:20:44.697Z,8.19
2018-02-10T11:23:12.376Z,8.14
2018-02-10T11:25:39.937Z,8.05
2018-02-10T11:28:07.512Z,8.12
2018-02-10T11:30:35.172Z,8.21
2018-02-10T11:33:02.758Z,8.28
2018-02-10T11:35:30.335Z,8.36
2018-02-10T11:37:57.899Z,8.44
2018-02-10T11:40:25.454Z,8.62
2018-02-10T11:42:53.018Z,8.86
2018-02-10T11:45:20.577Z,9.16
2018-02-10T11:47:48.231Z,9.41
2018-02-10T11:50:15.824Z,9.59
2018-02-10T11:52:43.506Z,9.75
2018-02-10T11:55:11.331Z,9.88
2018-02-10T11:57:39.059Z,9.88
2018-02-10T12:00:06.709Z,9.74
2018-02-10T12:02:34.276Z,9.50
2018-02-10T12:05:02.006Z,9.52
2018-02-10T12:07:29.573Z,9.34
2018-02-10T12:09:57.258Z,9.30
2018-02-10T12:12:24.826Z,9.46
2018-02-10T12:14:52.405Z,9.62
2018-02-10T12:17:19.980Z,9.63
2018-02-10T12:19:47.563Z,9.64
2018-02-10T12:22:15.137Z,9.66
2018-02-10T12:24:42.707Z,9.58
2018-02-10T12:27:10.465Z,9.50
2018-02-10T12:29:38.122Z,9.56
2018-02-10T12:32:05.901Z,9.61
2018-02-10T12:34:33.449Z,9.62
2018-02-10T12:37:01.033Z,9.64
2018-02-10T12:39:28.727Z,9.59
2018-02-10T12:41:56.305Z,9.59
2018-02-10T12:44:23.857Z,9.57
2018-02-10T12:46:51.477Z,9.70
2018-02-10T12:49:24.641Z,9.76
2018-02-10T12:51:52.409Z,9.71
2018-02-10T12:54:19.960Z,9.53
2018-02-10T12:56:47.699Z,9.50
2018-02-10T12:59:15.276Z,9.36
2018-02-10T13:01:42.830Z,9.22
2018-02-10T13:04:10.652Z,9.08
2018-02-10T13:06:38.250Z,9.12
2018-02-10T13:09:05.887Z,9.09
2018-02-10T13:11:33.607Z,9.07
2018-02-10T13:14:01.425Z,9.17
2018-02-10T13:16:29.005Z,9.18
2018-02-10T13:18:56.652Z,9.25
2018-02-10T13:21:24.224Z,9.21
2018-02-10T13:23:51.802Z,9.24
2018-02-10T13:26:19.500Z,9.25
2018-02-10T13:28:47.118Z,9.36
2018-02-10T13:31:14.711Z,9.30
2018-02-10T13:33:42.294Z,9.22
2018-02-10T13:36:09.853Z,9.20
2018-02-10T13:38:37.603Z,8.95
2018-02-10T13:41:05.423Z,8.88
2018-02-10T13:43:33.241Z,8.80
2018-02-10T13:46:00.798Z,8.83
2018-02-10T13:48:40.193Z,8.79
2018-02-10T13:51:07.797Z,8.79
2018-02-10T13:53:35.375Z,8.76
2018-02-10T13:56:02.976Z,8.75
2018-02-10T13:58:30.790Z,8.71
2018-02-10T14:00:58.608Z,8.69
2018-02-10T14:03:26.427Z,8.69
2018-02-10T14:05:54.245Z,8.71
2018-02-10T14:08:21.875Z,8.68
2018-02-10T14:10:49.561Z,8.64
2018-02-10T14:13:17.130Z,8.73
2018-02-10T14:15:44.921Z,8.68
2018-02-10T14:18:12.738Z,8.69
2018-02-10T14:20:40.568Z,8.74
2018-02-10T14:23:08.336Z,8.78
2018-02-10T14:25:35.923Z,8.85
2018-02-10T14:28:03.514Z,8.84
2018-02-10T14:30:31.326Z,8.84
2018-02-10T14:32:58.886Z,8.82
2018-02-10T14:35:26.655Z,8.84
2018-02-10T14:37:54.387Z,8.81
2018-02-10T14:40:22.201Z,8.81
2018-02-10T14:42:49.746Z,8.83
2018-02-10T14:45:17.535Z,8.78
2018-02-10T14:47:45.145Z,8.68
2018-02-10T14:50:12.972Z,8.61
2018-02-10T14:52:40.567Z,8.59
2018-02-10T14:55:08.165Z,8.39
2018-02-10T14:57:35.892Z,8.31
2018-02-10T15:00:03.517Z,8.23
2018-02-10T15:02:31.405Z,8.07
2018-02-10T15:04:59.095Z,7.98
2018-02-10T15:07:26.653Z,7.85
2018-02-10T15:09:54.499Z,7.83
2018-02-10T15:12:22.069Z,7.70
2018-02-10T15:14:49.629Z,7.62
2018-02-10T15:17:17.194Z,7.59
2018-02-10T15:19:44.989Z,7.47
2018-02-10T15:22:12.808Z,7.43
2018-02-10T15:24:40.370Z,7.36
2018-02-10T15:27:08.013Z,7.28
2018-02-10T15:29:47.550Z,7.26
2018-02-10T15:32:27.017Z,7.21
2018-02-10T15:34:59.698Z,7.19
2018-02-10T15:37:27.276Z,7.16
2018-02-10T15:39:54.913Z,7.21
2018-02-10T15:42:22.544Z,7.18
2018-02-10T15:44:50.151Z,7.18
2018-02-10T15:47:17.864Z,7.22
2018-02-10T15:49:45.806Z,7.26
2018-02-10T15:52:13.429Z,7.17
2018-02-10T15:54:41.247Z,7.16
2018-02-10T15:57:08.834Z,7.18
2018-02-10T15:59:36.390Z,7.21
2018-02-10T16:02:03.986Z,7.14
2018-02-10T16:04:31.714Z,7.11
2018-02-10T16:06:59.532Z,7.09
2018-02-10T16:09:27.250Z,7.05
2018-02-10T16:11:55.178Z,7.09
2018-02-10T16:14:22.779Z,7.08
2018-02-10T16:16:50.333Z,7.08
2018-02-10T16:19:17.898Z,7.09
2018-02-10T16:21:45.703Z,7.00
2018-02-10T16:24:13.469Z,6.99
2018-02-10T16:26:41.024Z,6.98
2018-02-10T16:29:08.716Z,7.02
2018-02-10T16:31:36.277Z,7.11
2018-02-10T16:34:03.842Z,7.02
2018-02-10T16:36:31.514Z,7.03
2018-02-10T16:38:59.070Z,7.02
2018-02-10T16:41:26.669Z,7.02
2018-02-10T16:43:54.233Z,6.99
2018-02-10T16:46:21.861Z,7.02
2018-02-10T16:48:49.484Z,7.02
2018-02-10T16:51:17.041Z,7.08
2018-02-10T16:53:44.835Z,7.03
2018-02-10T16:56:12.653Z,7.03
2018-02-10T16:58:40.372Z,6.95
2018-02-10T17:01:07.950Z,6.91
2018-02-10T17:03:35.501Z,6.93
2018-02-10T17:06:03.227Z,7.02
2018-02-10T17:08:31.045Z,7.01
2018-02-10T17:10:58.867Z,7.03
2018-02-10T17:13:26.760Z,7.02
2018-02-10T17:15:54.344Z,6.97
2018-02-10T17:18:22.108Z,6.91
2018-02-10T17:20:49.670Z,6.87
2018-02-10T17:23:17.454Z,6.90
2018-02-10T17:25:45.163Z,6.88
2018-02-10T17:28:12.725Z,6.92
2018-02-10T17:30:40.398Z,6.97
2018-02-10T17:33:08.090Z,6.99
2018-02-10T17:35:35.697Z,6.98
2018-02-10T17:38:03.267Z,6.99
2018-02-10T17:40:30.939Z,6.99
2018-02-10T17:42:58.505Z,6.94
2018-02-10T17:45:26.104Z,7.02
2018-02-10T17:47:53.934Z,7.03
2018-02-10T17:50:21.486Z,7.01
2018-02-10T17:52:49.470Z,7.02
2018-02-10T17:55:17.058Z,7.03
2018-02-10T17:57:44.642Z,6.98
2018-02-10T18:00:12.218Z,6.95
2018-02-10T18:02:39.799Z,6.96
2018-02-10T18:05:07.367Z,6.92
2018-02-10T18:07:34.950Z,6.90
2018-02-10T18:10:02.613Z,6.84
2018-02-10T18:12:30.173Z,6.83
2018-02-10T18:14:57.731Z,6.87
2018-02-10T18:17:25.299Z,6.88
2018-02-10T18:19:53.025Z,6.89
2018-02-10T18:22:20.612Z,6.87
2018-02-10T18:24:48.180Z,6.86
2018-02-10T18:27:16.747Z,6.84
2018-02-10T18:29:44.307Z,6.81
2018-02-10T18:32:11.863Z,6.80
2018-02-10T18:34:39.438Z,6.79
2018-02-10T18:37:07.120Z,6.78
2018-02-10T18:39:34.745Z,6.78
2018-02-10T18:42:02.664Z,6.76
2018-02-10T18:44:30.640Z,6.77
2018-02-10T18:46:58.386Z,6.76
2018-02-10T18:49:26.048Z,6.72
2018-02-10T18:51:53.906Z,6.71
2018-02-10T18:54:21.469Z,6.67
2018-02-10T18:56:49.080Z,6.66
2018-02-10T18:59:16.630Z,6.67
2018-02-10T19:01:44.183Z,6.65
2018-02-10T19:04:11.768Z,6.63
2018-02-10T19:06:39.335Z,6.59
2018-02-10T19:09:07.204Z,6.55
2018-02-10T19:11:34.917Z,6.57
2018-02-10T19:14:02.593Z,6.55
2018-02-10T19:16:30.345Z,6.53
2018-02-10T19:18:57.890Z,6.54
2018-02-10T19:21:25.578Z,6.56
2018-02-10T19:23:53.707Z,6.59
2018-02-10T19:26:23.702Z,6.58
2018-02-10T19:28:52.003Z,6.55
2018-02-10T19:31:19.710Z,6.57
2018-02-10T19:33:47.548Z,6.59
2018-02-10T19:36:15.379Z,6.58
2018-02-10T19:38:43.105Z,6.54
2018-02-10T19:41:10.719Z,6.54
2018-02-10T19:43:38.596Z,6.52
2018-02-10T19:46:06.353Z,6.53
2018-02-10T19:48:34.235Z,6.54
2018-02-10T19:51:02.350Z,6.51
2018-02-10T19:53:30.226Z,6.49
2018-02-10T19:55:58.028Z,6.48
2018-02-10T19:58:25.912Z,6.49
2018-02-10T20:00:53.670Z,6.52
2018-02-10T20:03:21.226Z,6.51
2018-02-10T20:05:48.798Z,6.52
2018-02-10T20:08:16.567Z,6.48
2018-02-10T20:10:44.137Z,6.51
2018-02-10T20:13:11.756Z,6.54
2018-02-10T20:15:39.353Z,6.52
2018-02-10T20:18:07.154Z,6.49
2018-02-10T20:20:34.886Z,6.51
2018-02-10T20:23:02.527Z,6.51
2018-02-10T20:25:30.093Z,6.52
2018-02-10T20:27:57.667Z,6.52
2018-02-10T20:30:25.571Z,6.50
2018-02-10T20:32:53.173Z,6.45
2018-02-10T20:35:20.723Z,6.43
2018-02-10T20:37:48.291Z,6.39
2018-02-10T20:40:15.942Z,6.36
2018-02-10T20:42:43.547Z,6.34
2018-02-10T20:45:11.136Z,6.28
2018-02-10T20:47:39.005Z,6.20
2018-02-10T20:50:06.724Z,6.13
2018-02-10T20:52:34.281Z,6.10
2018-02-10T20:55:01.845Z,6.02
2018-02-10T20:57:29.397Z,5.93
2018-02-10T20:59:57.195Z,5.91
2018-02-10T21:02:24.786Z,5.87
2018-02-10T21:04:52.606Z,5.81
2018-02-10T21:07:20.247Z,5.81
2018-02-10T21:09:47.816Z,5.77
2018-02-10T21:12:15.475Z,5.77
2018-02-10T21:14:43.041Z,5.77
2018-02-10T21:17:10.601Z,5.76
2018-02-10T21:19:38.158Z,5.73
2018-02-10T21:22:05.968Z,5.70
2018-02-10T21:24:33.775Z,5.69
2018-02-10T21:27:01.494Z,5.71
2018-02-10T21:29:29.071Z,5.55
2018-02-10T21:31:56.626Z,5.64
2018-02-10T21:34:24.190Z,5.65
2018-02-10T21:36:51.745Z,5.57
2018-02-10T21:39:19.397Z,5.58
2018-02-10T21:41:47.205Z,5.49
2018-02-10T21:44:14.782Z,5.46
2018-02-10T21:46:43.340Z,5.40
2018-02-10T21:49:11.074Z,5.33
2018-02-10T21:51:38.976Z,5.26
2018-02-10T21:54:06.538Z,5.22
2018-02-10T21:56:34.150Z,5.22
2018-02-10T21:59:01.912Z,5.25
2018-02-10T22:01:29.471Z,5.24
2018-02-10T22:03:57.244Z,5.20
2018-02-10T22:06:24.797Z,5.21
2018-02-10T22:08:52.357Z,5.18
2018-02-10T22:11:19.899Z,5.09
2018-02-10T22:13:47.506Z,5.04
2018-02-10T22:16:15.226Z,5.00
2018-02-10T22:18:42.864Z,5.01
2018-02-10T22:21:10.692Z,4.96
2018-02-10T22:23:38.263Z,4.86
2018-02-10T22:26:05.874Z,4.83
2018-02-10T22:28:33.652Z,4.75
2018-02-10T22:31:01.466Z,4.69
2018-02-10T22:33:29.069Z,4.65
2018-02-10T22:35:56.640Z,4.65
2018-02-10T22:38:24.187Z,4.66
2018-02-10T22:40:51.911Z,4.69
2018-02-10T22:43:19.522Z,4.65
2018-02-10T22:45:47.272Z,4.61
2018-02-10T22:48:18.703Z,4.55
2018-02-10T22:50:46.265Z,4.46
2018-02-10T22:53:13.823Z,4.42
2018-02-10T22:55:41.556Z,4.29
2018-02-10T22:58:09.154Z,4.24
2018-02-10T23:00:36.779Z,4.18
2018-02-10T23:03:04.513Z,4.14
2018-02-10T23:05:32.051Z,4.04
2018-02-10T23:07:59.613Z,4.01
2018-02-10T23:10:27.364Z,4.00
2018-02-10T23:12:54.910Z,3.98
2018-02-10T23:15:22.702Z,3.96
2018-02-10T23:17:50.518Z,3.93
2018-02-10T23:20:18.114Z,3.95
2018-02-10T23:22:45.835Z,3.96
2018-02-10T23:25:13.553Z,3.94
2018-02-10T23:27:41.109Z,3.94
2018-02-10T23:30:08.677Z,3.95
2018-02-10T23:32:36.237Z,3.91
2018-02-10T23:35:04.044Z,3.93
2018-02-10T23:37:31.657Z,3.93
2018-02-10T23:39:59.223Z,3.95
2018-02-10T23:42:26.922Z,3.88
2018-02-10T23:44:54.716Z,3.96
2018-02-10T23:47:22.283Z,3.95
2018-02-10T23:49:49.833Z,3.90
2018-02-10T23:52:19.282Z,3.89
2018-02-10T23:54:46.834Z,3.90
2018-02-10T23:57:14.390Z,3.86
2018-02-10T23:59:41.957Z,3.86
